Estación Meteorológica Peña el Pijo (Robertgarden) [ 02/03/23 03:39:36 CET ]

Fecha Hora Presion(HPa) Temp (°C) Humedad % Rocio (°C) Viento ( m/s) Direccion Lluvia 1Hora(mm) Lluvia 24H(mm) LLuvia Total(mm)
2012-Oct-29 01:01:18 1008.600 -1.5 85 -3.7         178.19
2012-Oct-29 02:06:16 1008.200 -1.7 87 -3.6         178.19
2012-Oct-29 03:01:49 1007.600 -2.1 87 -4.0         178.19
2012-Oct-29 04:01:17 1006.900 -2.1 88 -3.8         178.19
2012-Oct-29 05:01:11 1006.700 -2.6 88 -4.3         178.19
2012-Oct-29 06:01:13 1006.400 -2.6 89 -4.2         178.19
2012-Oct-29 07:01:11 1006.300 -2.7 89 -4.3         178.19
2012-Oct-29 08:01:12 1006.700 -2.6 89 -4.2         178.19
2012-Oct-29 09:01:12 1006.700 1.4 90 -0.1         178.19
2012-Oct-29 10:01:17 1006.400 7.6 64 1.2         178.19
2012-Oct-29 11:01:16 1005.600 9.8 45 -1.6         178.19
2012-Oct-29 12:01:20 1005.100 14.4 35 -1.1         178.19
2012-Oct-29 13:01:18 1004.400 16.8 30 -0.9         178.19
2012-Oct-29 14:01:16 1003.500 17.4 31 0.1         178.19
2012-Oct-29 15:01:19 1002.800 17.5 34 1.4         178.19
2012-Oct-29 16:01:17 1002.900 16.3 35 0.7         178.19
2012-Oct-29 17:01:14 1002.700 14.2 42 1.4         178.19
2012-Oct-29 18:01:17 1002.800 10.5 51 0.8         178.19
2012-Oct-29 19:01:13 1003.300 6.9 64 0.5         178.19
2012-Oct-29 20:01:17 1003.300 4.8 74 0.5         178.19
2012-Oct-29 21:01:14 1003.100 3.5 78 0.0         178.19
2012-Oct-29 22:01:13 1002.900 3.0 81 0.1         178.19
2012-Oct-29 23:01:12 1002.600 2.6 83 -0.0         178.19

Temperatura Máxima:17°    Temperatura Mínima:-2°
Presión Máxima:1008.600 Hpa    Presión Mínima:1002.600 Hpa


Volver